Time;durP1;ratioP1;P1;durP2;ratioP2;P2;SDS_P1;SDS_P2;PMS_P1;PMS_P2;Temp;Humidity;BMP_temperature;BMP_pressure;BME280_temperature;BME280_humidity;BME280_pressure;Samples;Min_cycle;Max_cycle;Signal;HPM_P1;HPM_P2
2021/12/21 00:00:18;;;;;;;15.07;8.27;;;-2.10;99.90;;;;;;5078669;28;21906;-40
2021/12/21 00:02:49;;;;;;;12.13;8.10;;;-2.10;99.90;;;;;;5081576;28;20206;-41
2021/12/21 00:05:19;;;;;;;11.30;6.93;;;-2.10;99.90;;;;;;5083473;28;20202;-41
2021/12/21 00:07:49;;;;;;;11.07;7.70;;;-2.10;99.90;;;;;;5081747;28;20193;-40
2021/12/21 00:10:16;;;;;;;13.30;7.37;;;-2.10;99.90;;;;;;5085918;28;20208;-42
2021/12/21 00:12:59;;;;;;;12.40;8.10;;;-2.00;99.90;;;;;;5061967;28;20206;-41
2021/12/21 00:15:37;;;;;;;10.03;7.73;;;-2.00;99.90;;;;;;5073413;28;20198;-44
2021/12/21 00:18:16;;;;;;;13.87;8.20;;;-2.10;99.90;;;;;;5072275;28;20197;-41
2021/12/21 00:20:52;;;;;;;10.93;7.50;;;-2.10;99.90;;;;;;5079210;28;20212;-43
2021/12/21 00:23:33;;;;;;;14.57;9.03;;;-2.20;99.90;;;;;;5081530;28;20259;-42
2021/12/21 00:26:02;;;;;;;13.93;8.57;;;-2.20;99.90;;;;;;5085231;28;20578;-40
2021/12/21 00:28:33;;;;;;;15.53;8.67;;;-2.20;99.90;;;;;;5061209;28;20201;-44
2021/12/21 00:31:00;;;;;;;17.50;9.27;;;-2.20;99.90;;;;;;5085310;28;20580;-40
2021/12/21 00:33:28;;;;;;;11.60;7.60;;;-2.10;99.90;;;;;;5081223;28;20197;-43
2021/12/21 00:35:55;;;;;;;13.27;8.37;;;-2.20;99.90;;;;;;5079895;28;20198;-42
2021/12/21 00:38:21;;;;;;;11.40;7.90;;;-2.20;99.90;;;;;;5082191;28;20201;-40
2021/12/21 00:40:48;;;;;;;8.40;6.40;;;-2.30;99.90;;;;;;5084841;28;20221;-43
2021/12/21 00:43:15;;;;;;;13.63;7.83;;;-2.30;99.90;;;;;;5070565;28;20685;-43
2021/12/21 00:45:41;;;;;;;14.57;8.33;;;-2.20;99.90;;;;;;5077194;28;20198;-41
2021/12/21 00:48:08;;;;;;;15.60;8.87;;;-2.20;99.90;;;;;;5084305;28;20204;-43
2021/12/21 00:50:36;;;;;;;13.00;8.50;;;-2.10;99.90;;;;;;5077256;28;20236;-44
2021/12/21 00:53:04;;;;;;;10.20;7.80;;;-2.10;99.90;;;;;;5084855;28;20198;-41
2021/12/21 00:55:31;;;;;;;11.07;7.63;;;-2.10;99.90;;;;;;5070434;28;20204;-40
2021/12/21 00:57:58;;;;;;;15.27;8.03;;;-2.10;99.90;;;;;;5075976;28;20224;-41
2021/12/21 01:00:24;;;;;;;14.40;8.03;;;-2.10;99.90;;;;;;5068008;28;20469;-41
2021/12/21 01:02:52;;;;;;;11.63;7.43;;;-2.20;99.90;;;;;;5078714;28;20652;-40
2021/12/21 01:05:26;;;;;;;8.97;6.80;;;-2.20;99.90;;;;;;5080903;28;20745;-40
2021/12/21 01:07:57;;;;;;;11.93;7.97;;;-2.30;99.90;;;;;;5077685;28;20297;-43
2021/12/21 01:10:48;;;;;;;10.27;7.10;;;-2.40;99.90;;;;;;5079999;28;20227;-41
2021/12/21 01:13:28;;;;;;;9.50;6.37;;;-2.40;99.90;;;;;;5082249;28;20263;-43
2021/12/21 01:16:13;;;;;;;11.63;7.13;;;-2.40;99.90;;;;;;5070619;28;20713;-41
2021/12/21 01:18:53;;;;;;;13.80;7.20;;;-2.30;99.90;;;;;;5077571;28;20197;-40
2021/12/21 01:21:25;;;;;;;10.93;6.93;;;-2.30;99.90;;;;;;5079724;28;20217;-42
2021/12/21 01:24:06;;;;;;;12.93;7.50;;;-2.30;99.90;;;;;;5081618;28;20194;-42
2021/12/21 01:26:41;;;;;;;12.43;7.83;;;-2.30;99.90;;;;;;5080632;28;20186;-43
2021/12/21 01:29:17;;;;;;;9.30;6.80;;;-2.30;99.90;;;;;;5083467;28;20280;-44
2021/12/21 01:31:51;;;;;;;12.73;7.47;;;-2.40;99.90;;;;;;5059919;28;20233;-43
2021/12/21 01:34:33;;;;;;;8.77;6.67;;;-2.40;99.90;;;;;;5080950;28;20288;-42
2021/12/21 01:37:05;;;;;;;11.13;6.57;;;-2.40;99.90;;;;;;5081900;28;20210;-42
2021/12/21 01:42:21;;;;;;;14.20;6.37;;;-2.40;99.90;;;;;;5073308;28;20234;-43
2021/12/21 01:50:13;;;;;;;12.07;6.73;;;-2.60;99.90;;;;;;5082854;28;20621;-40
2021/12/21 01:52:40;;;;;;;12.97;6.20;;;-2.60;99.90;;;;;;5079721;28;20319;-40
2021/12/21 01:55:09;;;;;;;10.47;6.23;;;-2.60;99.90;;;;;;5082087;28;20198;-44
2021/12/21 01:57:36;;;;;;;11.70;6.00;;;-2.60;99.90;;;;;;5077237;28;20223;-44
2021/12/21 02:00:05;;;;;;;9.10;6.30;;;-2.60;99.90;;;;;;5081834;28;20255;-43
2021/12/21 02:02:33;;;;;;;10.57;5.87;;;-2.60;99.90;;;;;;5066800;28;20220;-41
2021/12/21 02:04:59;;;;;;;8.73;6.40;;;-2.70;99.90;;;;;;5080209;28;20676;-43
2021/12/21 02:07:27;;;;;;;9.40;6.30;;;-2.70;99.90;;;;;;5078902;28;20182;-40
2021/12/21 02:09:54;;;;;;;8.90;6.10;;;-2.70;99.90;;;;;;5083733;28;20667;-41
2021/12/21 02:12:22;;;;;;;8.57;6.20;;;-2.70;99.90;;;;;;5081559;28;20713;-41
2021/12/21 02:14:56;;;;;;;9.83;5.43;;;-2.70;99.90;;;;;;5083657;28;20190;-42
2021/12/21 02:20:18;;;;;;;11.57;6.60;;;-2.70;99.90;;;;;;5066302;28;20202;-40
2021/12/21 02:22:50;;;;;;;10.57;6.03;;;-2.60;99.90;;;;;;5078667;28;20209;-41
2021/12/21 02:25:38;;;;;;;9.63;5.93;;;-2.60;99.90;;;;;;5075598;28;20198;-41
2021/12/21 02:28:24;;;;;;;11.73;5.70;;;-2.60;99.90;;;;;;5082550;28;20743;-41
2021/12/21 02:30:54;;;;;;;7.63;5.83;;;-2.60;99.90;;;;;;5075043;28;20214;-43
2021/12/21 02:33:22;;;;;;;8.17;6.00;;;-2.60;99.90;;;;;;5079125;28;20190;-44
2021/12/21 02:35:50;;;;;;;7.90;5.80;;;-2.60;99.90;;;;;;5069925;28;20253;-44
2021/12/21 02:38:17;;;;;;;6.00;5.40;;;-2.60;99.90;;;;;;5079806;28;20214;-45
2021/12/21 02:40:45;;;;;;;9.43;5.63;;;-2.60;99.90;;;;;;5082846;28;20218;-42
2021/12/21 02:43:13;;;;;;;9.47;6.23;;;-2.50;99.90;;;;;;5079855;28;20536;-46
2021/12/21 02:45:40;;;;;;;9.80;6.20;;;-2.50;99.90;;;;;;5080946;28;20201;-42
2021/12/21 02:48:08;;;;;;;11.00;5.60;;;-2.50;99.90;;;;;;5077464;28;20269;-44
2021/12/21 02:50:38;;;;;;;8.20;5.70;;;-2.50;99.90;;;;;;5066912;28;20222;-42
2021/12/21 02:53:07;;;;;;;9.97;5.53;;;-2.60;99.90;;;;;;5082618;28;20205;-41
2021/12/21 02:55:33;;;;;;;8.37;5.83;;;-2.60;99.90;;;;;;5080097;28;20202;-41
2021/12/21 02:58:00;;;;;;;10.80;6.00;;;-2.60;99.90;;;;;;5085776;28;20206;-43
2021/12/21 03:00:28;;;;;;;10.93;5.53;;;-2.60;99.90;;;;;;5078479;28;20221;-43
2021/12/21 03:02:55;;;;;;;7.00;5.77;;;-2.60;99.90;;;;;;5084173;28;20303;-42
2021/12/21 03:05:22;;;;;;;6.97;5.20;;;-2.70;99.90;;;;;;5066122;28;20647;-45
2021/12/21 03:08:07;;;;;;;8.93;5.67;;;-2.70;99.90;;;;;;5076720;28;20201;-42
2021/12/21 03:10:36;;;;;;;8.53;5.30;;;-2.80;99.90;;;;;;5081637;28;20585;-44
2021/12/21 03:15:48;;;;;;;7.37;5.40;;;-2.80;99.90;;;;;;5075487;28;20196;-42
2021/12/21 03:18:15;;;;;;;8.20;6.13;;;-2.80;99.90;;;;;;5080779;28;20234;-42
2021/12/21 03:20:41;;;;;;;8.30;5.67;;;-2.80;99.90;;;;;;5067336;28;20225;-44
2021/12/21 03:23:08;;;;;;;8.50;5.93;;;-2.80;99.90;;;;;;5079010;28;20198;-42
2021/12/21 03:25:36;;;;;;;10.53;6.13;;;-2.80;99.90;;;;;;5083161;28;20202;-41
2021/12/21 03:28:03;;;;;;;10.00;5.83;;;-2.80;99.90;;;;;;5078614;28;20944;-43
2021/12/21 03:30:30;;;;;;;10.40;6.10;;;-2.80;99.90;;;;;;5082501;28;20224;-43
2021/12/21 03:32:57;;;;;;;8.17;5.33;;;-2.80;99.90;;;;;;5082794;28;20193;-42
2021/12/21 03:35:23;;;;;;;10.43;5.93;;;-2.80;99.90;;;;;;5082347;28;20198;-41
2021/12/21 03:37:50;;;;;;;8.27;5.77;;;-2.80;99.90;;;;;;5067408;28;20589;-42
2021/12/21 03:40:17;;;;;;;7.87;6.13;;;-2.80;99.90;;;;;;5079526;28;20190;-42
2021/12/21 03:42:45;;;;;;;14.33;6.53;;;-2.80;99.90;;;;;;5081783;28;20548;-43
2021/12/21 03:45:11;;;;;;;9.47;6.87;;;-2.90;99.90;;;;;;5072414;28;20292;-41
2021/12/21 03:47:38;;;;;;;7.57;5.30;;;-2.90;99.90;;;;;;5082379;28;20198;-44
2021/12/21 03:50:13;;;;;;;9.43;5.80;;;-2.90;99.90;;;;;;5072025;28;20190;-44
2021/12/21 03:52:40;;;;;;;9.07;5.50;;;-2.90;99.90;;;;;;5070549;28;20296;-42
2021/12/21 03:55:07;;;;;;;10.50;5.93;;;-3.00;99.90;;;;;;5083330;28;20198;-41
2021/12/21 03:57:34;;;;;;;10.13;5.90;;;-3.00;99.90;;;;;;5083421;28;20218;-42
2021/12/21 04:00:02;;;;;;;10.73;6.13;;;-3.00;99.90;;;;;;5084679;28;20205;-42
2021/12/21 04:02:31;;;;;;;8.47;5.60;;;-3.00;99.90;;;;;;5084101;28;20210;-42
2021/12/21 04:04:59;;;;;;;9.60;5.57;;;-3.00;99.90;;;;;;5084321;28;20194;-42
2021/12/21 04:07:26;;;;;;;8.27;5.63;;;-3.00;99.90;;;;;;5083267;28;20336;-43
2021/12/21 04:09:53;;;;;;;13.20;6.40;;;-3.00;99.90;;;;;;5074787;28;20194;-41
2021/12/21 04:12:19;;;;;;;9.50;5.57;;;-3.00;99.90;;;;;;5085727;28;20226;-41
2021/12/21 04:14:47;;;;;;;6.77;5.50;;;-3.00;99.90;;;;;;5081990;28;20194;-43
2021/12/21 04:17:21;;;;;;;8.20;5.77;;;-3.00;99.90;;;;;;5085944;28;20686;-41
2021/12/21 04:19:47;;;;;;;10.17;6.17;;;-2.90;99.90;;;;;;5077110;28;20305;-41
2021/12/21 04:22:16;;;;;;;6.93;5.20;;;-2.90;99.90;;;;;;5078969;28;20238;-41
2021/12/21 04:24:42;;;;;;;7.07;4.97;;;-2.80;99.90;;;;;;5068720;28;20792;-41
2021/12/21 04:27:09;;;;;;;6.93;5.47;;;-2.80;99.90;;;;;;5085217;28;20700;-42
2021/12/21 04:29:36;;;;;;;9.03;5.27;;;-2.80;99.90;;;;;;5085400;28;20217;-44
2021/12/21 04:32:04;;;;;;;9.60;6.23;;;-2.90;99.90;;;;;;5084449;28;20225;-42
2021/12/21 04:34:32;;;;;;;7.10;5.73;;;-2.90;99.90;;;;;;5083653;28;20198;-44
2021/12/21 04:36:59;;;;;;;9.30;5.70;;;-2.90;99.90;;;;;;5086227;28;20193;-41
2021/12/21 04:39:33;;;;;;;11.43;5.73;;;-2.90;99.90;;;;;;5071603;28;20266;-41
2021/12/21 04:42:00;;;;;;;9.23;6.20;;;-2.90;99.90;;;;;;5083754;28;20208;-41
2021/12/21 04:44:27;;;;;;;11.23;6.57;;;-3.00;99.90;;;;;;5081488;28;20545;-42
2021/12/21 04:46:53;;;;;;;11.40;6.00;;;-3.00;99.90;;;;;;5082199;28;20933;-42
2021/12/21 04:49:20;;;;;;;8.80;6.07;;;-3.00;99.90;;;;;;5085149;28;20201;-42
2021/12/21 04:51:48;;;;;;;7.27;5.87;;;-3.00;99.90;;;;;;5081114;28;20210;-43
2021/12/21 04:54:14;;;;;;;8.43;5.70;;;-3.00;99.90;;;;;;5085144;28;20198;-44
2021/12/21 04:56:41;;;;;;;9.40;5.40;;;-3.10;99.90;;;;;;5067049;28;20900;-42
2021/12/21 04:59:08;;;;;;;10.13;6.00;;;-3.10;99.90;;;;;;5084514;28;20221;-42
2021/12/21 05:01:34;;;;;;;9.03;5.17;;;-3.10;99.90;;;;;;5072230;28;20228;-44
2021/12/21 05:04:01;;;;;;;8.17;5.80;;;-3.10;99.90;;;;;;5079787;28;20194;-41
2021/12/21 05:06:28;;;;;;;8.60;5.67;;;-3.10;99.90;;;;;;5080753;28;20659;-41
2021/12/21 05:09:04;;;;;;;8.30;5.93;;;-3.10;99.90;;;;;;5080154;28;20195;-42
2021/12/21 05:11:35;;;;;;;5.77;5.23;;;-3.10;99.90;;;;;;5066935;28;20266;-44
2021/12/21 05:14:05;;;;;;;8.60;5.70;;;-3.20;99.90;;;;;;5073348;28;20209;-41
2021/12/21 05:16:32;;;;;;;8.37;5.07;;;-3.20;99.90;;;;;;5074821;28;20190;-44
2021/12/21 05:18:59;;;;;;;5.70;5.10;;;-3.20;99.90;;;;;;5084259;28;20702;-44
2021/12/21 05:21:26;;;;;;;6.10;4.60;;;-3.20;99.90;;;;;;5071703;28;20226;-42
2021/12/21 05:23:53;;;;;;;7.27;5.40;;;-3.20;99.90;;;;;;5080742;28;20247;-42
2021/12/21 05:26:21;;;;;;;8.60;5.37;;;-3.20;99.90;;;;;;5068869;28;20240;-42
2021/12/21 05:28:47;;;;;;;9.07;6.03;;;-3.20;99.90;;;;;;5082171;28;20919;-43
2021/12/21 05:31:14;;;;;;;8.33;5.37;;;-3.20;99.90;;;;;;5077618;28;20222;-44
2021/12/21 05:33:40;;;;;;;13.40;6.20;;;-3.20;99.90;;;;;;5068163;28;20202;-44
2021/12/21 05:36:07;;;;;;;10.63;4.80;;;-3.20;99.90;;;;;;5083978;28;20570;-43
2021/12/21 05:38:35;;;;;;;8.47;6.23;;;-3.20;99.90;;;;;;5072221;28;20901;-44
2021/12/21 05:41:05;;;;;;;6.60;5.30;;;-3.30;99.90;;;;;;5067472;28;20283;-43
2021/12/21 05:43:33;;;;;;;10.23;6.33;;;-3.20;99.90;;;;;;5079659;28;20280;-42
2021/12/21 05:46:01;;;;;;;9.80;5.90;;;-3.20;99.90;;;;;;5066357;28;20559;-41
2021/12/21 05:48:27;;;;;;;9.93;6.30;;;-3.10;99.90;;;;;;5079834;28;20178;-45
2021/12/21 05:50:54;;;;;;;8.73;5.20;;;-3.10;99.90;;;;;;5083319;28;20245;-47
2021/12/21 05:53:21;;;;;;;7.20;5.27;;;-3.20;99.90;;;;;;5074212;28;20206;-40
2021/12/21 05:55:47;;;;;;;8.60;5.37;;;-3.20;99.90;;;;;;5073402;28;20205;-44
2021/12/21 05:58:14;;;;;;;8.87;5.50;;;-3.20;99.90;;;;;;5073434;28;20224;-40
2021/12/21 06:00:42;;;;;;;7.80;5.50;;;-3.30;99.90;;;;;;5080833;28;20206;-40
2021/12/21 06:03:09;;;;;;;11.30;6.37;;;-3.30;99.90;;;;;;5069547;28;20573;-45
2021/12/21 06:05:36;;;;;;;9.40;5.47;;;-3.30;99.90;;;;;;5074422;28;20202;-43
2021/12/21 06:08:03;;;;;;;7.23;5.33;;;-3.30;99.90;;;;;;5071174;28;20210;-42
2021/12/21 06:10:34;;;;;;;10.90;5.87;;;-3.30;99.90;;;;;;5071540;28;20932;-43
2021/12/21 06:13:28;;;;;;;7.40;5.83;;;-3.20;99.90;;;;;;5070651;28;20584;-41
2021/12/21 06:16:22;;;;;;;7.00;5.70;;;-3.20;99.90;;;;;;5082319;28;20202;-41
2021/12/21 06:27:04;;;;;;;10.90;5.77;;;-3.30;99.90;;;;;;5081360;28;20252;-41
2021/12/21 06:29:31;;;;;;;7.87;5.67;;;-3.30;99.90;;;;;;5058077;28;20206;-42
2021/12/21 06:31:59;;;;;;;9.40;6.13;;;-3.30;99.90;;;;;;5080428;28;20690;-41
2021/12/21 06:34:26;;;;;;;8.57;5.13;;;-3.40;99.90;;;;;;5067128;28;20212;-41
2021/12/21 06:36:54;;;;;;;7.87;5.70;;;-3.40;99.90;;;;;;5082080;28;20205;-42
2021/12/21 06:39:21;;;;;;;8.17;6.20;;;-3.40;99.90;;;;;;5073136;28;20933;-41
2021/12/21 06:41:48;;;;;;;6.83;5.70;;;-3.40;99.90;;;;;;5073550;28;20224;-48
2021/12/21 06:44:16;;;;;;;8.50;6.00;;;-3.40;99.90;;;;;;5060267;28;20201;-42
2021/12/21 06:47:03;;;;;;;9.23;6.17;;;-3.40;99.90;;;;;;5068502;28;20205;-40
2021/12/21 06:52:17;;;;;;;8.30;5.90;;;-3.50;99.90;;;;;;5072608;28;20210;-41
2021/12/21 06:54:44;;;;;;;12.30;6.00;;;-3.60;99.90;;;;;;5081019;28;20185;-41
2021/12/21 06:57:10;;;;;;;7.23;5.37;;;-3.60;99.90;;;;;;5074340;28;20186;-43
2021/12/21 06:59:37;;;;;;;9.67;6.40;;;-3.60;99.90;;;;;;5065141;28;20229;-43
2021/12/21 07:02:05;;;;;;;10.87;6.10;;;-3.50;99.90;;;;;;5074903;28;20244;-42
2021/12/21 07:04:34;;;;;;;9.23;6.00;;;-3.50;99.90;;;;;;5070756;28;20210;-41
2021/12/21 07:07:01;;;;;;;11.23;6.50;;;-3.50;99.90;;;;;;5067170;28;20235;-40
2021/12/21 07:09:34;;;;;;;10.53;6.20;;;-3.50;99.90;;;;;;5082524;28;20541;-42
2021/12/21 07:12:20;;;;;;;11.23;6.30;;;-3.50;99.90;;;;;;5063781;28;20350;-41
2021/12/21 07:20:28;;;;;;;8.33;5.50;;;-3.50;99.90;;;;;;5065905;28;20623;-41
2021/12/21 07:22:55;;;;;;;11.67;6.53;;;-3.40;99.90;;;;;;5045566;28;20195;-39
2021/12/21 07:25:25;;;;;;;9.03;5.77;;;-3.40;99.90;;;;;;5043632;28;21673;-42
2021/12/21 07:27:52;;;;;;;8.43;5.70;;;-3.30;99.90;;;;;;5038364;28;20594;-43
2021/12/21 07:30:19;;;;;;;11.10;6.80;;;-3.30;99.90;;;;;;5038050;28;20217;-42
2021/12/21 07:32:45;;;;;;;10.80;5.97;;;-3.30;99.90;;;;;;5044749;28;20194;-44
2021/12/21 07:35:12;;;;;;;10.50;5.83;;;-3.40;99.90;;;;;;5034785;28;20202;-42
2021/12/21 07:37:40;;;;;;;7.63;5.63;;;-3.40;99.90;;;;;;5048521;28;20280;-41
2021/12/21 07:40:09;;;;;;;8.90;6.10;;;-3.40;99.90;;;;;;5036386;28;20218;-40
2021/12/21 07:42:36;;;;;;;12.93;5.83;;;-3.40;99.90;;;;;;5045732;28;20211;-40
2021/12/21 07:45:02;;;;;;;12.17;6.67;;;-3.40;99.90;;;;;;5019374;28;21769;-42
2021/12/21 07:47:29;;;;;;;13.97;6.43;;;-3.40;99.90;;;;;;5033922;28;20202;-41
2021/12/21 07:49:56;;;;;;;22.47;7.30;;;-3.40;99.90;;;;;;5039111;28;20709;-40
2021/12/21 07:52:23;;;;;;;15.93;7.70;;;-3.40;99.90;;;;;;5037420;28;20223;-40
2021/12/21 07:54:51;;;;;;;19.43;7.27;;;-3.40;99.90;;;;;;5048110;28;20204;-39
2021/12/21 07:57:18;;;;;;;19.47;7.87;;;-3.40;99.90;;;;;;5038945;28;20218;-41
2021/12/21 07:59:45;;;;;;;14.63;8.20;;;-3.40;99.90;;;;;;5049224;28;20218;-40
2021/12/21 08:02:13;;;;;;;20.93;7.17;;;-3.30;99.90;;;;;;5037095;28;20216;-43
2021/12/21 08:04:41;;;;;;;16.03;8.13;;;-3.30;99.90;;;;;;5041616;28;20203;-40
2021/12/21 08:07:10;;;;;;;14.23;7.90;;;-3.30;99.90;;;;;;5032004;28;20203;-42
2021/12/21 08:09:42;;;;;;;12.70;6.90;;;-3.30;99.90;;;;;;5043124;28;20199;-41
2021/12/21 08:12:14;;;;;;;17.07;7.37;;;-3.20;99.90;;;;;;5032735;28;20234;-43
2021/12/21 08:14:41;;;;;;;14.97;7.83;;;-3.20;99.90;;;;;;5055420;28;20205;-40
2021/12/21 08:17:08;;;;;;;12.97;7.03;;;-3.10;99.90;;;;;;5033779;28;20543;-41
2021/12/21 08:19:35;;;;;;;14.53;7.40;;;-3.10;99.90;;;;;;5065062;28;20692;-40
2021/12/21 08:22:02;;;;;;;11.67;7.67;;;-3.10;99.90;;;;;;5043754;28;20223;-40
2021/12/21 08:24:29;;;;;;;19.47;8.73;;;-3.00;99.90;;;;;;5057976;28;20211;-40
2021/12/21 08:26:56;;;;;;;17.93;7.57;;;-3.10;99.90;;;;;;5048237;28;20194;-42
2021/12/21 08:29:24;;;;;;;16.93;8.30;;;-3.00;99.90;;;;;;5042243;28;20191;-40
2021/12/21 08:31:51;;;;;;;18.33;9.30;;;-3.00;99.90;;;;;;5028398;28;20747;-40
2021/12/21 08:34:18;;;;;;;17.90;10.77;;;-3.00;99.90;;;;;;5029379;28;20204;-40
2021/12/21 08:36:44;;;;;;;17.03;8.17;;;-3.00;99.90;;;;;;5027182;28;20598;-40
2021/12/21 08:39:11;;;;;;;9.50;6.93;;;-3.00;99.90;;;;;;5038344;28;20223;-41
2021/12/21 08:41:42;;;;;;;12.77;7.87;;;-3.00;99.90;;;;;;5037641;28;20234;-40
2021/12/21 08:44:10;;;;;;;9.60;8.60;;;-3.00;99.90;;;;;;5029608;28;20203;-40
2021/12/21 08:46:39;;;;;;;16.43;8.10;;;-3.00;99.90;;;;;;5017866;28;20226;-41
2021/12/21 08:49:06;;;;;;;13.53;7.47;;;-3.00;99.90;;;;;;5025667;28;20200;-42
2021/12/21 08:51:33;;;;;;;13.80;8.10;;;-2.90;99.90;;;;;;5034672;28;20230;-42
2021/12/21 08:53:59;;;;;;;11.20;7.83;;;-2.90;99.90;;;;;;5027430;28;20204;-40
2021/12/21 08:56:26;;;;;;;9.90;7.60;;;-2.80;99.90;;;;;;5028339;28;20199;-40
2021/12/21 08:58:53;;;;;;;12.93;8.40;;;-2.80;99.90;;;;;;5036274;28;20222;-42
2021/12/21 09:01:19;;;;;;;15.73;8.83;;;-2.70;99.90;;;;;;5018613;28;20219;-40
2021/12/21 09:03:49;;;;;;;8.73;7.63;;;-2.60;99.90;;;;;;5033252;28;20199;-40
2021/12/21 09:06:16;;;;;;;9.13;8.03;;;-2.50;99.90;;;;;;5028958;28;20250;-40
2021/12/21 09:08:42;;;;;;;13.77;8.20;;;-2.40;99.90;;;;;;5043731;28;20202;-41
2021/12/21 09:11:09;;;;;;;12.63;8.70;;;-2.30;99.90;;;;;;5034206;28;20226;-42
2021/12/21 09:13:36;;;;;;;11.47;8.60;;;-2.20;99.90;;;;;;5032115;28;20211;-40
2021/12/21 09:16:03;;;;;;;13.27;8.67;;;-2.10;99.90;;;;;;5020559;28;20207;-43
2021/12/21 09:18:29;;;;;;;14.17;8.77;;;-2.00;99.90;;;;;;5022973;28;20220;-41
2021/12/21 09:20:57;;;;;;;12.23;8.30;;;-2.00;99.90;;;;;;5027266;28;20228;-40
2021/12/21 09:23:24;;;;;;;14.67;9.83;;;-1.90;99.90;;;;;;5023716;28;20796;-41
2021/12/21 09:25:50;;;;;;;14.50;9.13;;;-1.80;99.90;;;;;;5035473;28;20207;-41
2021/12/21 09:28:17;;;;;;;17.67;10.53;;;-1.70;99.90;;;;;;5030253;28;20199;-42
2021/12/21 09:30:45;;;;;;;15.03;9.60;;;-1.70;99.90;;;;;;5024113;28;20229;-45
2021/12/21 09:33:13;;;;;;;9.83;8.63;;;-1.60;99.90;;;;;;5025534;28;20290;-41
2021/12/21 09:35:40;;;;;;;17.53;9.33;;;-1.60;99.90;;;;;;5028501;28;20214;-42
2021/12/21 09:38:08;;;;;;;13.63;9.03;;;-1.60;99.90;;;;;;5019824;28;20192;-43
2021/12/21 09:40:39;;;;;;;11.17;9.07;;;-1.50;99.90;;;;;;5033854;28;20244;-40
2021/12/21 09:43:07;;;;;;;11.37;9.30;;;-1.40;99.90;;;;;;5027852;28;20925;-43
2021/12/21 09:45:34;;;;;;;15.37;9.87;;;-1.40;99.90;;;;;;5038150;28;20204;-40
2021/12/21 09:48:02;;;;;;;12.63;8.70;;;-1.30;99.90;;;;;;5026792;28;20204;-43
2021/12/21 09:50:29;;;;;;;15.03;9.80;;;-1.30;99.90;;;;;;5031138;28;20221;-41
2021/12/21 09:52:56;;;;;;;16.27;9.63;;;-1.30;99.90;;;;;;5024310;28;20756;-43
2021/12/21 09:55:24;;;;;;;14.60;9.83;;;-1.20;99.90;;;;;;5031064;28;20207;-41
2021/12/21 09:57:53;;;;;;;12.07;9.33;;;-1.10;99.90;;;;;;5033191;28;20206;-42
2021/12/21 10:00:23;;;;;;;14.50;9.17;;;-1.10;99.90;;;;;;5038860;28;20386;-40
2021/12/21 10:02:49;;;;;;;14.23;9.70;;;-1.10;99.90;;;;;;5032528;28;20567;-41
2021/12/21 10:05:20;;;;;;;15.33;9.43;;;-1.00;99.90;;;;;;5017252;28;20204;-40
2021/12/21 10:07:56;;;;;;;16.33;10.00;;;-0.90;99.90;;;;;;5033445;28;20211;-40
2021/12/21 10:10:25;;;;;;;14.87;8.60;;;-0.90;99.90;;;;;;5035412;28;20218;-41
2021/12/21 10:12:51;;;;;;;13.17;9.93;;;-0.80;99.90;;;;;;5031251;28;20210;-42
2021/12/21 10:15:21;;;;;;;9.50;7.77;;;-0.80;99.90;;;;;;5030150;28;20277;-41
2021/12/21 10:17:49;;;;;;;13.83;9.10;;;-0.80;99.90;;;;;;5034864;28;20198;-42
2021/12/21 10:20:30;;;;;;;13.10;9.67;;;-0.80;99.90;;;;;;5015974;28;20227;-41
2021/12/21 10:22:57;;;;;;;15.27;8.50;;;-0.80;99.90;;;;;;5036719;28;20199;-42
2021/12/21 10:25:26;;;;;;;13.37;9.37;;;-0.70;99.90;;;;;;5026413;28;20204;-40
2021/12/21 10:27:53;;;;;;;13.47;9.10;;;-0.70;99.90;;;;;;5027914;28;20209;-42
2021/12/21 10:30:19;;;;;;;10.07;9.03;;;-0.70;99.90;;;;;;5025967;28;20203;-44
2021/12/21 10:32:52;;;;;;;12.00;8.83;;;-0.60;99.90;;;;;;5036655;28;20196;-41
2021/12/21 10:35:19;;;;;;;13.40;9.30;;;-0.60;99.90;;;;;;5019856;28;21102;-41
2021/12/21 10:37:50;;;;;;;11.23;9.60;;;-0.60;99.90;;;;;;5018218;28;20210;-40
2021/12/21 10:40:23;;;;;;;19.83;9.90;;;-0.50;99.90;;;;;;5018123;28;20311;-41
2021/12/21 10:42:55;;;;;;;11.47;9.67;;;-0.40;99.90;;;;;;5027931;28;20574;-44
2021/12/21 10:45:28;;;;;;;12.90;9.87;;;-0.30;99.90;;;;;;5031511;28;20211;-43
2021/12/21 10:47:55;;;;;;;11.43;8.70;;;-0.30;99.90;;;;;;5031667;28;20203;-42
2021/12/21 10:50:23;;;;;;;10.97;9.37;;;-0.20;99.90;;;;;;5026979;28;20275;-42
2021/12/21 10:52:52;;;;;;;12.47;9.53;;;-0.20;99.90;;;;;;5015416;28;20209;-45
2021/12/21 10:55:31;;;;;;;13.43;9.60;;;-0.10;99.90;;;;;;5025590;28;20237;-42
2021/12/21 10:58:08;;;;;;;11.60;9.47;;;0.00;99.90;;;;;;5020260;28;20210;-43
2021/12/21 11:00:37;;;;;;;12.10;9.17;;;0.00;99.90;;;;;;5024317;28;20419;-43
2021/12/21 11:03:04;;;;;;;11.67;9.23;;;0.10;99.90;;;;;;5034870;28;20234;-42
2021/12/21 11:05:31;;;;;;;11.33;8.40;;;0.10;99.90;;;;;;5015889;28;20224;-42
2021/12/21 11:08:03;;;;;;;11.10;8.77;;;0.20;99.90;;;;;;5020936;28;20207;-42
2021/12/21 11:10:34;;;;;;;12.73;8.00;;;0.30;99.90;;;;;;5030208;28;20275;-44
2021/12/21 11:13:03;;;;;;;12.37;7.97;;;0.40;99.90;;;;;;5043176;28;20612;-44
2021/12/21 11:15:34;;;;;;;10.83;8.40;;;0.40;99.90;;;;;;5015235;28;20211;-42
2021/12/21 11:18:03;;;;;;;9.57;7.10;;;0.40;99.90;;;;;;5036518;28;20205;-42
2021/12/21 11:20:30;;;;;;;9.53;7.63;;;0.50;99.90;;;;;;5022326;28;20223;-41
2021/12/21 11:22:57;;;;;;;9.67;8.20;;;0.60;99.90;;;;;;5014040;28;20204;-42
2021/12/21 11:25:24;;;;;;;14.90;8.47;;;0.60;99.90;;;;;;5028529;28;20213;-43
2021/12/21 11:27:51;;;;;;;11.57;8.20;;;0.70;99.90;;;;;;5028701;28;20346;-42
2021/12/21 11:30:21;;;;;;;13.07;8.67;;;0.70;99.90;;;;;;5021982;28;20675;-42
2021/12/21 11:32:51;;;;;;;11.47;8.33;;;0.80;99.90;;;;;;5030935;28;20198;-43
2021/12/21 11:38:07;;;;;;;9.27;7.03;;;0.80;99.90;;;;;;5006279;28;20253;-44
2021/12/21 11:40:36;;;;;;;8.67;6.97;;;0.90;99.90;;;;;;5029430;28;20229;-44
2021/12/21 11:43:22;;;;;;;8.47;6.93;;;0.90;99.90;;;;;;5028196;28;20191;-46
2021/12/21 11:45:53;;;;;;;11.37;6.83;;;0.90;99.90;;;;;;5014020;28;20240;-44
2021/12/21 11:48:31;;;;;;;9.80;6.27;;;1.00;99.90;;;;;;5029304;28;20202;-42
2021/12/21 11:51:03;;;;;;;8.67;7.13;;;1.00;99.90;;;;;;5028503;28;20224;-42
2021/12/21 11:53:30;;;;;;;11.40;6.93;;;1.10;99.90;;;;;;5015537;28;20590;-46
2021/12/21 11:55:57;;;;;;;7.60;6.67;;;1.10;99.90;;;;;;5034120;28;20681;-42
2021/12/21 11:58:26;;;;;;;9.40;7.30;;;1.20;99.90;;;;;;5036011;28;20217;-43
2021/12/21 12:00:56;;;;;;;14.37;7.70;;;1.20;99.90;;;;;;5026174;28;20234;-40
2021/12/21 12:03:27;;;;;;;11.67;8.03;;;1.30;99.90;;;;;;5022576;28;20285;-44
2021/12/21 12:05:57;;;;;;;8.40;7.33;;;1.30;99.90;;;;;;5022316;28;22809;-42
2021/12/21 12:08:25;;;;;;;11.30;7.00;;;1.30;99.90;;;;;;5022238;28;20627;-42
2021/12/21 12:10:55;;;;;;;9.30;8.00;;;1.30;99.90;;;;;;5038613;28;20225;-40
2021/12/21 12:13:40;;;;;;;8.03;6.53;;;1.40;99.90;;;;;;5030732;28;20766;-44
2021/12/21 12:16:09;;;;;;;10.27;7.10;;;1.40;99.90;;;;;;5029419;28;20206;-42
2021/12/21 12:18:43;;;;;;;9.03;7.00;;;1.50;99.90;;;;;;5040840;28;20214;-41
2021/12/21 12:21:17;;;;;;;10.97;7.03;;;1.50;99.90;;;;;;5034200;28;20223;-40
2021/12/21 12:23:49;;;;;;;9.87;6.93;;;1.60;99.90;;;;;;5014950;28;20221;-43
2021/12/21 12:26:24;;;;;;;12.43;7.20;;;1.60;99.90;;;;;;5051578;28;20205;-45
2021/12/21 12:28:51;;;;;;;12.63;7.00;;;1.70;99.90;;;;;;5035500;28;20192;-43
2021/12/21 12:31:33;;;;;;;13.13;7.47;;;1.80;99.90;;;;;;5047845;28;20218;-45
2021/12/21 12:34:02;;;;;;;12.27;7.40;;;1.80;99.90;;;;;;5041623;28;20206;-46
2021/12/21 12:36:38;;;;;;;14.53;7.20;;;1.90;99.90;;;;;;5036822;28;20203;-44
2021/12/21 12:39:05;;;;;;;14.47;8.00;;;1.90;99.90;;;;;;5018522;28;20235;-47
2021/12/21 12:41:44;;;;;;;10.40;7.57;;;1.90;99.90;;;;;;5033285;28;20231;-42
2021/12/21 12:44:20;;;;;;;14.37;8.50;;;1.90;99.90;;;;;;5043336;28;20276;-44
2021/12/21 12:46:53;;;;;;;13.93;8.37;;;1.90;99.90;;;;;;5020979;28;20212;-42
2021/12/21 12:49:24;;;;;;;9.40;7.70;;;1.90;99.90;;;;;;5042268;28;20282;-42
2021/12/21 12:51:51;;;;;;;24.13;9.10;;;1.90;99.90;;;;;;5030341;28;20230;-42
2021/12/21 12:54:21;;;;;;;9.07;7.77;;;1.90;99.90;;;;;;5020813;28;20210;-42
2021/12/21 12:56:48;;;;;;;10.17;8.07;;;1.90;99.90;;;;;;5024183;28;20195;-41
2021/12/21 12:59:15;;;;;;;14.77;8.43;;;1.90;99.90;;;;;;5035601;28;20226;-45
2021/12/21 13:01:44;;;;;;;12.10;8.70;;;1.90;99.90;;;;;;5037249;28;20214;-44
2021/12/21 13:04:13;;;;;;;9.40;6.60;;;1.90;99.90;;;;;;5036605;28;20207;-42
2021/12/21 13:06:43;;;;;;;13.60;7.37;;;1.90;99.90;;;;;;5024970;28;20423;-45
2021/12/21 13:09:12;;;;;;;16.83;8.00;;;1.90;99.90;;;;;;5017281;28;20695;-41
2021/12/21 13:11:40;;;;;;;12.67;6.30;;;1.90;99.90;;;;;;5017353;28;20284;-43
2021/12/21 13:14:10;;;;;;;10.57;7.03;;;1.90;99.90;;;;;;5038453;28;20806;-42
2021/12/21 13:16:39;;;;;;;11.17;8.10;;;1.90;99.90;;;;;;5025559;28;20195;-45
2021/12/21 13:19:07;;;;;;;9.20;7.10;;;1.90;99.90;;;;;;5031749;28;20611;-42
2021/12/21 13:21:37;;;;;;;11.40;7.27;;;1.90;99.90;;;;;;5048725;28;20230;-41
2021/12/21 13:24:09;;;;;;;8.87;7.53;;;1.90;99.90;;;;;;5031888;28;20203;-44
2021/12/21 13:26:37;;;;;;;10.40;7.47;;;1.90;99.90;;;;;;5021491;28;20230;-42